Matsu Arrow — 3FQB8 — position and weather

sailwx.info

Track history (hours):
 
Tides and Currents Weather Stations Pressure Air Temp Water Temp Dewpoint Dewpoint Depression Visibility Wind Speed Wind Dir Waves Ship Positions

Matsu Arrow

Last reported at 2017-Dec-18 07:00 UTC. Time now 2017-Dec-18 07:17 UTC.
Position N 43°33' E 010°18'.

Length 190 m; draft 10 m.

Type: Cargo ship. MMSI: 351805000.

Date/timePositionNaut miles runAvg speedWind from/ knotsBaromVisibWave heightAir tempDewpointWater temp
2017-Dec-18 07:00N 43°33' E 010°18'0 0.0
2017-Dec-18 06:30N 43°33' E 010°18'0 0.0
2017-Dec-18 05:57N 43°33' E 010°18'0 0.0
2017-Dec-18 05:30N 43°33' E 010°18'0 0.0
2017-Dec-18 05:00N 43°33' E 010°18'0 0.0
2017-Dec-18 04:30N 43°33' E 010°18'0 0.0
2017-Dec-18 03:54N 43°33' E 010°18'0 0.0
2017-Dec-18 03:24N 43°33' E 010°18'0 0.0
2017-Dec-18 03:00N 43°33' E 010°18'0 0.0
2017-Dec-18 02:30N 43°33' E 010°18'0 0.0
2017-Dec-18 01:54N 43°33' E 010°18'0 0.0
2017-Dec-18 01:27N 43°33' E 010°18'0 0.0
2017-Dec-18 00:57N 43°33' E 010°18'0 0.0
2017-Dec-18 00:30N 43°33' E 010°18'0 0.0
2017-Dec-18 00:00N 43°33' E 010°18'0 0.0
2017-Dec-17 23:30N 43°33' E 010°18'0 0.0
2017-Dec-17 23:00N 43°33' E 010°18'0 0.0
2017-Dec-17 22:30N 43°33' E 010°18'0 0.0
2017-Dec-17 21:57N 43°33' E 010°18'0 0.0
2017-Dec-17 21:30N 43°33' E 010°18'0 0.0
2017-Dec-17 21:00N 43°33' E 010°18'0 0.0
2017-Dec-17 20:27N 43°33' E 010°18'0 0.0
2017-Dec-17 19:54N 43°33' E 010°18'0 0.0
2017-Dec-17 19:27N 43°33' E 010°18'0 0.0
2017-Dec-17 19:00N 43°33' E 010°18'0 0.0
2017-Dec-17 18:27N 43°33' E 010°18'0 0.0
2017-Dec-17 18:00N 43°33' E 010°18'0 0.0
2017-Dec-17 17:30N 43°33' E 010°18'0 0.0
2017-Dec-17 17:00N 43°33' E 010°18'0 0.0
2017-Dec-17 16:30N 43°33' E 010°18'0 0.0
2017-Dec-17 15:57N 43°33' E 010°18'0 0.0
2017-Dec-17 15:30N 43°33' E 010°18'0 0.0
2017-Dec-17 15:00N 43°33' E 010°18'0 0.0
2017-Dec-17 14:27N 43°33' E 010°18'0 0.0
2017-Dec-17 13:57N 43°33' E 010°18'0 0.0
2017-Dec-17 13:27N 43°33' E 010°18'0 0.0
2017-Dec-17 12:57N 43°33' E 010°18'0 0.0
2017-Dec-17 12:24N 43°33' E 010°18'0 0.0
2017-Dec-17 11:57N 43°33' E 010°18'0 0.0
2017-Dec-17 11:18N 43°33' E 010°18'0 0.0
2017-Dec-17 11:00N 43°33' E 010°18'0 0.0
2017-Dec-17 10:30N 43°33' E 010°18'0 0.0
2017-Dec-17 10:00N 43°33' E 010°18'0 0.2
2017-Dec-17 09:31N 43°33' E 010°18'3 4.6
2017-Dec-17 08:57N 43°31' E 010°16'1 3.1
2017-Dec-17 08:31N 43°30' E 010°15'1 2.5
2017-Dec-17 08:01N 43°29' E 010°14'3 6.2
2017-Dec-17 07:29N 43°26' E 010°13'3 5.5
2017-Dec-17 06:57N 43°23' E 010°14'0 0.3
2017-Dec-17 06:31N 43°23' E 010°14'0 0.2
2017-Dec-17 05:58N 43°23' E 010°14'0 0.2
2017-Dec-17 05:31N 43°23' E 010°14'0 0.2
2017-Dec-17 05:00N 43°23' E 010°14'1 1.9
2017-Dec-17 04:31N 43°24' E 010°15'1 2.1
2017-Dec-17 04:01N 43°25' E 010°15'2 3.5
2017-Dec-17 03:31N 43°26' E 010°17'2 4.8
2017-Dec-17 03:01N 43°27' E 010°14'1 1.6
2017-Dec-17 02:31N 43°28' E 010°13'1 1.4
2017-Dec-17 02:01N 43°27' E 010°13'1 1.7
2017-Dec-17 01:31N 43°26' E 010°13'1 1.9
2017-Dec-17 01:00N 43°27' E 010°14'1 1.3
2017-Dec-17 00:30N 43°28' E 010°14'2 3.7
2017-Dec-17 00:00N 43°26' E 010°14'0 0.5
2017-Dec-16 23:31N 43°26' E 010°14'0 0.6
2017-Dec-16 23:01N 43°25' E 010°14'2 3.7
2017-Dec-16 22:30N 43°27' E 010°12'1 2.3
2017-Dec-16 21:57N 43°26' E 010°12'3 7.0
2017-Dec-16 21:27N 43°23' E 010°08'4 8.3
2017-Dec-16 21:01N 43°21' E 010°04'3 6.1
2017-Dec-16 20:30N 43°20' E 010°00'510.1
2017-Dec-16 19:59N 43°17' E 009°54'611.7
2017-Dec-16 19:31N 43°16' E 009°47'611.7
2017-Dec-16 19:01N 43°15' E 009°39'611.7
2017-Dec-16 18:30N 43°13' E 009°31'611.5
2017-Dec-16 18:00N 43°11' E 009°24'612.0
2017-Dec-16 17:30N 43°09' E 009°16'34010.8
2017-Dec-15 09:58N 39°22' E 003°38'1913.0
2017-Dec-15 08:31N 39°12' E 003°18'412.8
2017-Dec-15 08:12N 39°10' E 003°13'312.8
2017-Dec-15 07:57N 39°08' E 003°10'612.9
2017-Dec-15 07:27N 39°04' E 003°03'16913.0
2017-Dec-14 18:29N 37°33' E 000°02'713.1
2017-Dec-14 17:57N 37°29' W 000°05'4013.2
2017-Dec-14 14:55N 37°07' W 000°47'22312.1
2017-Dec-13 20:27N 36°00' W 005°11'613.6
2017-Dec-13 20:00N 35°59' W 005°19'713.5
2017-Dec-13 19:30N 35°58' W 005°27'  
2017-Dec-11 04:51N 28°48' W 013°01'410.9
2017-Dec-11 04:29N 28°45' W 013°04'711.0
2017-Dec-11 03:51N 28°39' W 013°08'511.0
2017-Dec-11 03:26N 28°35' W 013°11'1611.1
2017-Dec-11 02:00N 28°22' W 013°21'1611.0
2017-Dec-11 00:31N 28°08' W 013°32'111.1
2017-Dec-11 00:26N 28°08' W 013°33'711.2
2017-Dec-10 23:51N 28°02' W 013°37'411.1
2017-Dec-10 23:30N 27°59' W 013°39'611.2
2017-Dec-10 23:00N 27°55' W 013°43'611.3
2017-Dec-10 22:30N 27°50' W 013°47'611.4
2017-Dec-10 21:57N 27°45' W 013°50'8011.8
2017-Dec-10 15:07N 26°38' W 014°42'111.9
2017-Dec-10 15:00N 26°37' W 014°43'1311.8
2017-Dec-10 13:52N 26°26' W 014°51'1311.5
2017-Dec-10 12:43N 26°16' W 014°59'411.4
2017-Dec-10 12:21N 26°12' W 015°02'911.4
2017-Dec-10 11:34N 26°04' W 015°07'111.4
2017-Dec-10 11:30N 26°04' W 015°07'  
Track history (hours):
 
Tides and Currents Weather Stations Pressure Air Temp Water Temp Dewpoint Dewpoint Depression Visibility Wind Speed Wind Dir Waves Ship Positions

Matsu Arrow

Last reported at 2017-Dec-18 07:00 UTC. Time now 2017-Dec-18 07:17 UTC.
Position N 43°33' E 010°18'.

Length 190 m; draft 10 m.

Type: Cargo ship. MMSI: 351805000.

Date/timePositionNaut miles runAvg speedWind from/ knotsBaromVisibWave heightAir tempDewpointWater temp
2017-Dec-18 07:00N 43°33' E 010°18'0 0.0
2017-Dec-18 06:30N 43°33' E 010°18'0 0.0
2017-Dec-18 05:57N 43°33' E 010°18'0 0.0
2017-Dec-18 05:30N 43°33' E 010°18'0 0.0
2017-Dec-18 05:00N 43°33' E 010°18'0 0.0
2017-Dec-18 04:30N 43°33' E 010°18'0 0.0
2017-Dec-18 03:54N 43°33' E 010°18'0 0.0
2017-Dec-18 03:24N 43°33' E 010°18'0 0.0
2017-Dec-18 03:00N 43°33' E 010°18'0 0.0
2017-Dec-18 02:30N 43°33' E 010°18'0 0.0
2017-Dec-18 01:54N 43°33' E 010°18'0 0.0
2017-Dec-18 01:27N 43°33' E 010°18'0 0.0
2017-Dec-18 00:57N 43°33' E 010°18'0 0.0
2017-Dec-18 00:30N 43°33' E 010°18'0 0.0
2017-Dec-18 00:00N 43°33' E 010°18'0 0.0
2017-Dec-17 23:30N 43°33' E 010°18'0 0.0
2017-Dec-17 23:00N 43°33' E 010°18'0 0.0
2017-Dec-17 22:30N 43°33' E 010°18'0 0.0
2017-Dec-17 21:57N 43°33' E 010°18'0 0.0
2017-Dec-17 21:30N 43°33' E 010°18'0 0.0
2017-Dec-17 21:00N 43°33' E 010°18'0 0.0
2017-Dec-17 20:27N 43°33' E 010°18'0 0.0
2017-Dec-17 19:54N 43°33' E 010°18'0 0.0
2017-Dec-17 19:27N 43°33' E 010°18'0 0.0
2017-Dec-17 19:00N 43°33' E 010°18'0 0.0
2017-Dec-17 18:27N 43°33' E 010°18'0 0.0
2017-Dec-17 18:00N 43°33' E 010°18'0 0.0
2017-Dec-17 17:30N 43°33' E 010°18'0 0.0
2017-Dec-17 17:00N 43°33' E 010°18'0 0.0
2017-Dec-17 16:30N 43°33' E 010°18'0 0.0
2017-Dec-17 15:57N 43°33' E 010°18'0 0.0
2017-Dec-17 15:30N 43°33' E 010°18'0 0.0
2017-Dec-17 15:00N 43°33' E 010°18'0 0.0
2017-Dec-17 14:27N 43°33' E 010°18'0 0.0
2017-Dec-17 13:57N 43°33' E 010°18'0 0.0
2017-Dec-17 13:27N 43°33' E 010°18'0 0.0
2017-Dec-17 12:57N 43°33' E 010°18'0 0.0
2017-Dec-17 12:24N 43°33' E 010°18'0 0.0
2017-Dec-17 11:57N 43°33' E 010°18'0 0.0
2017-Dec-17 11:18N 43°33' E 010°18'0 0.0
2017-Dec-17 11:00N 43°33' E 010°18'0 0.0
2017-Dec-17 10:30N 43°33' E 010°18'0 0.0
2017-Dec-17 10:00N 43°33' E 010°18'0 0.2
2017-Dec-17 09:31N 43°33' E 010°18'3 4.6
2017-Dec-17 08:57N 43°31' E 010°16'1 3.1
2017-Dec-17 08:31N 43°30' E 010°15'1 2.5
2017-Dec-17 08:01N 43°29' E 010°14'3 6.2
2017-Dec-17 07:29N 43°26' E 010°13'3 5.5
2017-Dec-17 06:57N 43°23' E 010°14'0 0.3
2017-Dec-17 06:31N 43°23' E 010°14'0 0.2
2017-Dec-17 05:58N 43°23' E 010°14'0 0.2
2017-Dec-17 05:31N 43°23' E 010°14'0 0.2
2017-Dec-17 05:00N 43°23' E 010°14'1 1.9
2017-Dec-17 04:31N 43°24' E 010°15'1 2.1
2017-Dec-17 04:01N 43°25' E 010°15'2 3.5
2017-Dec-17 03:31N 43°26' E 010°17'2 4.8
2017-Dec-17 03:01N 43°27' E 010°14'1 1.6
2017-Dec-17 02:31N 43°28' E 010°13'1 1.4
2017-Dec-17 02:01N 43°27' E 010°13'1 1.7
2017-Dec-17 01:31N 43°26' E 010°13'1 1.9
2017-Dec-17 01:00N 43°27' E 010°14'1 1.3
2017-Dec-17 00:30N 43°28' E 010°14'2 3.7
2017-Dec-17 00:00N 43°26' E 010°14'0 0.5
2017-Dec-16 23:31N 43°26' E 010°14'0 0.6
2017-Dec-16 23:01N 43°25' E 010°14'2 3.7
2017-Dec-16 22:30N 43°27' E 010°12'1 2.3
2017-Dec-16 21:57N 43°26' E 010°12'3 7.0
2017-Dec-16 21:27N 43°23' E 010°08'4 8.3
2017-Dec-16 21:01N 43°21' E 010°04'3 6.1
2017-Dec-16 20:30N 43°20' E 010°00'510.1
2017-Dec-16 19:59N 43°17' E 009°54'611.7
2017-Dec-16 19:31N 43°16' E 009°47'611.7
2017-Dec-16 19:01N 43°15' E 009°39'611.7
2017-Dec-16 18:30N 43°13' E 009°31'611.5
2017-Dec-16 18:00N 43°11' E 009°24'612.0
2017-Dec-16 17:30N 43°09' E 009°16'34010.8
2017-Dec-15 09:58N 39°22' E 003°38'1913.0
2017-Dec-15 08:31N 39°12' E 003°18'412.8
2017-Dec-15 08:12N 39°10' E 003°13'312.8
2017-Dec-15 07:57N 39°08' E 003°10'612.9
2017-Dec-15 07:27N 39°04' E 003°03'16913.0
2017-Dec-14 18:29N 37°33' E 000°02'713.1
2017-Dec-14 17:57N 37°29' W 000°05'4013.2
2017-Dec-14 14:55N 37°07' W 000°47'22312.1
2017-Dec-13 20:27N 36°00' W 005°11'613.6
2017-Dec-13 20:00N 35°59' W 005°19'713.5
2017-Dec-13 19:30N 35°58' W 005°27'  
2017-Dec-11 04:51N 28°48' W 013°01'410.9
2017-Dec-11 04:29N 28°45' W 013°04'711.0
2017-Dec-11 03:51N 28°39' W 013°08'511.0
2017-Dec-11 03:26N 28°35' W 013°11'1611.1
2017-Dec-11 02:00N 28°22' W 013°21'1611.0
2017-Dec-11 00:31N 28°08' W 013°32'111.1
2017-Dec-11 00:26N 28°08' W 013°33'711.2
2017-Dec-10 23:51N 28°02' W 013°37'411.1
2017-Dec-10 23:30N 27°59' W 013°39'611.2
2017-Dec-10 23:00N 27°55' W 013°43'611.3
2017-Dec-10 22:30N 27°50' W 013°47'611.4
2017-Dec-10 21:57N 27°45' W 013°50'8011.8
2017-Dec-10 15:07N 26°38' W 014°42'111.9
2017-Dec-10 15:00N 26°37' W 014°43'1311.8
2017-Dec-10 13:52N 26°26' W 014°51'1311.5
2017-Dec-10 12:43N 26°16' W 014°59'411.4
2017-Dec-10 12:21N 26°12' W 015°02'911.4
2017-Dec-10 11:34N 26°04' W 015°07'111.4
2017-Dec-10 11:30N 26°04' W 015°07'  

Dump ship's entire track history